createdAt,value
2022-09-06T00:00:06.725Z,55.60
2022-09-06T00:02:37.689Z,54.00
2022-09-06T00:05:12.082Z,54.20
2022-09-06T00:07:47.596Z,54.00
2022-09-06T00:10:17.395Z,54.20
2022-09-06T00:12:50.078Z,54.80
2022-09-06T00:15:24.364Z,66.80
2022-09-06T00:18:01.021Z,54.00
2022-09-06T00:20:37.697Z,52.80
2022-09-06T00:23:12.050Z,57.00
2022-09-06T00:25:44.732Z,54.20
2022-09-06T00:28:17.347Z,57.00
2022-09-06T00:30:55.396Z,54.00
2022-09-06T00:33:28.089Z,60.60
2022-09-06T00:36:07.039Z,52.00
2022-09-06T00:38:39.010Z,53.20
2022-09-06T00:41:11.969Z,66.40
2022-09-06T00:44:01.882Z,54.00
2022-09-06T00:46:39.959Z,49.40
2022-09-06T00:49:16.141Z,55.00
2022-09-06T00:51:48.982Z,54.00
2022-09-06T00:54:19.575Z,57.00
2022-09-06T00:56:52.986Z,54.00
2022-09-06T00:59:25.888Z,53.60
2022-09-06T01:01:56.497Z,54.00
2022-09-06T01:04:34.514Z,56.00
2022-09-06T01:07:31.122Z,62.20
2022-09-06T01:10:06.337Z,56.80
2022-09-06T01:12:51.170Z,54.20
2022-09-06T01:15:33.585Z,53.00
2022-09-06T01:18:10.993Z,52.00
2022-09-06T01:20:53.462Z,54.00
2022-09-06T01:23:57.039Z,52.00
2022-09-06T01:26:42.302Z,52.40
2022-09-06T01:29:31.006Z,53.60
2022-09-06T01:32:27.153Z,52.00
2022-09-06T01:35:11.333Z,52.40
2022-09-06T01:37:40.770Z,54.00
2022-09-06T01:40:11.204Z,52.80
2022-09-06T01:42:40.958Z,55.00
2022-09-06T01:45:10.826Z,55.80
2022-09-06T01:47:59.077Z,52.00
2022-09-06T01:50:41.189Z,52.40
2022-09-06T01:53:42.524Z,54.00
2022-09-06T01:56:32.765Z,53.20
2022-09-06T01:59:14.952Z,52.40
2022-09-06T02:02:01.863Z,52.40
2022-09-06T02:04:35.693Z,52.00
2022-09-06T02:07:20.771Z,52.40
2022-09-06T02:09:53.808Z,53.20
2022-09-06T02:12:23.055Z,52.00
2022-09-06T02:14:59.894Z,51.40
2022-09-06T02:17:43.426Z,54.00
2022-09-06T02:20:16.905Z,52.00
2022-09-06T02:22:50.056Z,52.80
2022-09-06T02:25:25.242Z,55.60
2022-09-06T02:27:55.473Z,54.00
2022-09-06T02:30:26.316Z,52.00
2022-09-06T02:33:05.213Z,54.80
2022-09-06T02:35:33.007Z,52.00
2022-09-06T02:38:00.190Z,52.80
2022-09-06T02:40:27.379Z,52.00
2022-09-06T02:42:55.061Z,53.60
2022-09-06T02:45:22.169Z,52.00
2022-09-06T02:47:55.021Z,54.00
2022-09-06T02:50:24.370Z,52.80
2022-09-06T02:53:12.063Z,53.60
2022-09-06T02:55:46.980Z,55.40
2022-09-06T02:58:27.238Z,52.00
2022-09-06T03:01:00.887Z,52.00
2022-09-06T03:03:39.243Z,52.40
2022-09-06T03:06:14.367Z,52.00
2022-09-06T03:08:46.831Z,52.40
2022-09-06T03:11:14.918Z,52.00
2022-09-06T03:13:44.988Z,51.00
2022-09-06T03:16:34.917Z,51.40
2022-09-06T03:19:15.950Z,52.00
2022-09-06T03:21:47.220Z,52.00
2022-09-06T03:24:15.429Z,52.00
2022-09-06T03:26:45.057Z,52.00
2022-09-06T03:29:15.562Z,52.00
2022-09-06T03:31:47.042Z,52.00
2022-09-06T03:34:17.625Z,52.00
2022-09-06T03:36:45.223Z,52.00
2022-09-06T03:39:13.619Z,52.00
2022-09-06T03:41:43.915Z,52.00
2022-09-06T03:44:13.620Z,54.00
2022-09-06T03:46:49.271Z,52.00
2022-09-06T03:49:20.227Z,54.40
2022-09-06T03:51:53.032Z,53.00
2022-09-06T03:54:32.561Z,52.40
2022-09-06T03:57:05.609Z,0.00
2022-09-06T03:59:39.978Z,51.20
2022-09-06T04:02:09.848Z,52.00
2022-09-06T04:04:39.852Z,52.80
2022-09-06T04:07:16.846Z,52.00
2022-09-06T04:09:48.620Z,52.00
2022-09-06T04:12:23.595Z,52.00
2022-09-06T04:14:50.862Z,51.20
2022-09-06T04:17:19.867Z,52.00
2022-09-06T04:19:50.004Z,52.00
2022-09-06T04:22:20.916Z,52.00
2022-09-06T04:24:54.495Z,51.60
2022-09-06T04:27:25.571Z,54.00
2022-09-06T04:29:53.535Z,55.20
2022-09-06T04:32:20.802Z,51.20
2022-09-06T04:34:50.164Z,52.00
2022-09-06T04:37:21.324Z,49.00
2022-09-06T04:39:51.582Z,51.20
2022-09-06T04:42:22.257Z,51.00
2022-09-06T04:44:53.051Z,51.40
2022-09-06T04:47:29.055Z,52.00
2022-09-06T04:50:02.314Z,51.20
2022-09-06T04:52:32.826Z,50.20
2022-09-06T04:55:02.832Z,51.00
2022-09-06T04:57:33.376Z,52.40
2022-09-06T05:00:04.513Z,52.20
2022-09-06T05:02:32.171Z,49.00
2022-09-06T05:05:01.808Z,52.20
2022-09-06T05:07:31.835Z,53.00
2022-09-06T05:10:02.345Z,52.00
2022-09-06T05:12:32.093Z,50.80
2022-09-06T05:15:00.080Z,52.00
2022-09-06T05:17:27.250Z,51.00
2022-09-06T05:19:56.865Z,52.20
2022-09-06T05:22:26.787Z,49.40
2022-09-06T05:24:57.175Z,51.80
2022-09-06T05:27:25.179Z,52.00
2022-09-06T05:29:52.434Z,52.80
2022-09-06T05:32:19.997Z,50.60
2022-09-06T05:34:50.417Z,51.20
2022-09-06T05:37:22.737Z,52.00
2022-09-06T05:39:50.668Z,54.40
2022-09-06T05:42:20.864Z,51.80
2022-09-06T05:44:48.817Z,49.00
2022-09-06T05:47:16.206Z,53.60
2022-09-06T05:49:44.223Z,49.00
2022-09-06T05:52:18.486Z,51.20
2022-09-06T05:54:47.885Z,51.80
2022-09-06T05:57:15.066Z,52.00
2022-09-06T05:59:42.180Z,52.00
2022-09-06T06:02:09.411Z,65.20
2022-09-06T06:04:36.674Z,50.60
2022-09-06T06:07:03.797Z,51.80
2022-09-06T06:09:30.804Z,52.00
2022-09-06T06:11:57.894Z,66.20
2022-09-06T06:14:25.647Z,52.00
2022-09-06T06:16:52.891Z,51.20
2022-09-06T06:19:20.064Z,53.60
2022-09-06T06:21:47.209Z,52.40
2022-09-06T06:24:14.548Z,54.00
2022-09-06T06:26:41.645Z,52.00
2022-09-06T06:29:09.869Z,53.40
2022-09-06T06:31:39.196Z,52.00
2022-09-06T06:34:07.285Z,52.80
2022-09-06T06:36:37.702Z,54.00
2022-09-06T06:39:08.668Z,55.80
2022-09-06T06:41:36.305Z,54.80
2022-09-06T06:44:05.341Z,51.80
2022-09-06T06:46:38.684Z,54.00
2022-09-06T06:49:05.968Z,52.00
2022-09-06T06:51:36.307Z,52.80
2022-09-06T06:54:04.059Z,54.00
2022-09-06T06:56:34.699Z,52.00
2022-09-06T06:59:04.682Z,51.60
2022-09-06T07:01:33.761Z,51.20
2022-09-06T07:04:01.232Z,52.00
2022-09-06T07:09:22.584Z,55.00
2022-09-06T07:11:50.061Z,54.20
2022-09-06T07:14:18.385Z,52.80
2022-09-06T07:16:47.831Z,54.00
2022-09-06T07:22:11.802Z,54.00
2022-09-06T07:24:41.744Z,54.60
2022-09-06T07:29:58.581Z,52.40
2022-09-06T07:32:26.039Z,55.40
2022-09-06T07:34:53.470Z,54.00
2022-09-06T07:37:20.614Z,54.00
2022-09-06T07:39:47.806Z,54.00
2022-09-06T07:42:16.409Z,55.40
2022-09-06T07:44:43.501Z,59.80
2022-09-06T07:55:32.859Z,56.60
2022-09-06T07:58:00.082Z,57.20
2022-09-06T08:00:27.606Z,58.20
2022-09-06T08:02:54.770Z,57.20
2022-09-06T08:10:56.308Z,55.80
2022-09-06T08:33:52.676Z,58.40
2022-09-06T08:37:20.957Z,58.00
2022-09-06T09:02:15.422Z,59.20
2022-09-06T09:18:59.407Z,60.80
2022-09-06T09:39:37.519Z,58.00
2022-09-06T10:04:43.200Z,60.00
2022-09-06T10:08:04.939Z,60.20
2022-09-06T10:21:58.083Z,63.80
2022-09-06T10:39:25.876Z,61.00
2022-09-06T10:46:24.578Z,61.40
2022-09-06T11:18:04.972Z,63.00
2022-09-06T11:27:48.890Z,66.00
2022-09-06T11:37:53.838Z,63.00
2022-09-06T11:44:53.759Z,64.00
2022-09-06T11:48:07.041Z,63.60
2022-09-06T11:51:04.083Z,63.40
2022-09-06T11:57:53.159Z,64.40
2022-09-06T12:11:54.701Z,64.00
2022-09-06T12:26:04.180Z,63.00
2022-09-06T12:29:01.276Z,65.20
2022-09-06T13:03:27.347Z,65.60
2022-09-06T13:13:06.693Z,66.00
2022-09-06T13:26:58.889Z,64.40
2022-09-06T13:33:53.309Z,66.00
2022-09-06T13:45:02.331Z,66.20
2022-09-06T13:51:47.540Z,66.00
2022-09-06T13:55:05.305Z,66.00
2022-09-06T14:05:15.408Z,66.00
2022-09-06T14:31:14.927Z,66.00
2022-09-06T14:55:35.885Z,66.00
2022-09-06T15:09:47.006Z,64.00
2022-09-06T15:22:56.352Z,66.00
2022-09-06T15:25:36.351Z,64.80
2022-09-06T15:28:03.635Z,63.00
2022-09-06T15:30:30.760Z,63.80
2022-09-06T15:32:57.886Z,63.60
2022-09-06T15:35:25.040Z,64.00
2022-09-06T15:37:52.054Z,64.40
2022-09-06T15:40:29.490Z,64.40
2022-09-06T15:42:56.582Z,63.60
2022-09-06T15:45:23.696Z,63.60
2022-09-06T15:47:51.213Z,63.40
2022-09-06T15:50:34.419Z,64.00
2022-09-06T15:53:05.413Z,63.20
2022-09-06T15:55:50.718Z,63.60
2022-09-06T15:58:18.190Z,63.00
2022-09-06T16:00:45.304Z,63.80
2022-09-06T16:03:14.332Z,63.00
2022-09-06T16:08:29.559Z,63.40
2022-09-06T16:10:57.452Z,64.40
2022-09-06T16:13:26.295Z,63.00
2022-09-06T16:15:58.424Z,63.00
2022-09-06T16:18:29.167Z,64.40
2022-09-06T16:20:56.412Z,65.20
2022-09-06T16:23:23.703Z,63.00
2022-09-06T16:25:54.458Z,66.00
2022-09-06T16:28:21.605Z,66.00
2022-09-06T16:30:48.835Z,66.00
2022-09-06T16:33:16.285Z,64.00
2022-09-06T16:35:43.836Z,64.40
2022-09-06T16:38:10.961Z,64.80
2022-09-06T16:40:43.273Z,62.20
2022-09-06T16:43:10.465Z,64.00
2022-09-06T16:45:42.529Z,61.00
2022-09-06T16:48:09.887Z,63.60
2022-09-06T16:50:37.005Z,63.60
2022-09-06T16:53:04.108Z,64.00
2022-09-06T16:55:31.265Z,63.20
2022-09-06T16:57:58.533Z,64.00
2022-09-06T17:00:25.740Z,64.80
2022-09-06T17:02:53.085Z,63.00
2022-09-06T17:05:20.141Z,64.00
2022-09-06T17:07:47.457Z,63.40
2022-09-06T17:10:14.748Z,64.00
2022-09-06T17:12:41.962Z,63.00
2022-09-06T17:15:11.881Z,63.20
2022-09-06T17:17:39.227Z,61.00
2022-09-06T17:20:06.736Z,63.20
2022-09-06T17:22:33.861Z,62.20
2022-09-06T17:25:05.867Z,63.40
2022-09-06T17:27:33.419Z,63.00
2022-09-06T17:30:00.428Z,61.00
2022-09-06T17:32:27.874Z,62.20
2022-09-06T17:34:55.063Z,60.20
2022-09-06T17:37:23.339Z,62.20
2022-09-06T17:39:50.610Z,60.20
2022-09-06T17:42:17.856Z,60.00
2022-09-06T17:44:46.742Z,61.00
2022-09-06T17:47:14.351Z,61.80
2022-09-06T17:49:43.246Z,61.00
2022-09-06T17:52:11.038Z,61.80
2022-09-06T17:54:38.145Z,60.80
2022-09-06T17:57:05.411Z,61.00
2022-09-06T17:59:35.336Z,61.00
2022-09-06T18:02:06.133Z,61.80
2022-09-06T18:04:33.753Z,60.20
2022-09-06T18:07:01.015Z,61.80
2022-09-06T18:09:31.137Z,61.00
2022-09-06T18:11:58.876Z,60.60
2022-09-06T18:14:28.890Z,60.20
2022-09-06T18:16:58.856Z,60.60
2022-09-06T18:19:32.439Z,61.00
2022-09-06T18:22:12.932Z,60.00
2022-09-06T18:24:40.891Z,61.00
2022-09-06T18:27:20.631Z,60.00
2022-09-06T18:29:56.109Z,58.80
2022-09-06T18:32:35.267Z,63.00
2022-09-06T18:35:16.558Z,60.00
2022-09-06T18:37:48.608Z,58.00
2022-09-06T18:40:24.276Z,60.00
2022-09-06T18:43:00.036Z,58.00
2022-09-06T18:45:33.166Z,57.80
2022-09-06T18:48:00.421Z,60.00
2022-09-06T18:50:27.466Z,60.00
2022-09-06T18:52:59.653Z,58.80
2022-09-06T18:55:59.761Z,60.00
2022-09-06T18:58:36.146Z,60.00
2022-09-06T19:01:15.062Z,58.40
2022-09-06T19:03:42.819Z,58.40
2022-09-06T19:06:12.527Z,60.00
2022-09-06T19:08:40.177Z,63.00
2022-09-06T19:11:13.667Z,60.20
2022-09-06T19:13:42.081Z,58.00
2022-09-06T19:16:18.265Z,61.60
2022-09-06T19:18:45.436Z,60.20
2022-09-06T19:21:17.892Z,60.00
2022-09-06T19:23:58.457Z,60.00
2022-09-06T19:26:27.529Z,58.00
2022-09-06T19:28:58.773Z,59.40
2022-09-06T19:31:29.590Z,58.40
2022-09-06T19:33:57.193Z,62.80
2022-09-06T19:36:25.972Z,65.60
2022-09-06T19:39:03.972Z,57.60
2022-09-06T19:41:34.586Z,56.60
2022-09-06T19:44:03.861Z,58.00
2022-09-06T19:46:31.033Z,64.60
2022-09-06T19:49:04.047Z,65.00
2022-09-06T19:51:34.358Z,58.80
2022-09-06T19:54:01.633Z,57.00
2022-09-06T19:56:32.018Z,58.00
2022-09-06T19:59:07.529Z,57.00
2022-09-06T20:01:39.199Z,60.00
2022-09-06T20:04:12.248Z,57.00
2022-09-06T20:06:47.731Z,59.00
2022-09-06T20:09:18.114Z,57.00
2022-09-06T20:11:47.924Z,57.00
2022-09-06T20:14:15.226Z,58.00
2022-09-06T20:16:43.346Z,58.00
2022-09-06T20:19:12.322Z,57.00
2022-09-06T20:21:45.474Z,55.20
2022-09-06T20:24:12.692Z,57.00
2022-09-06T20:26:40.727Z,57.00
2022-09-06T20:29:11.274Z,58.80
2022-09-06T20:31:38.879Z,57.00
2022-09-06T20:34:07.301Z,57.60
2022-09-06T20:36:38.437Z,57.40
2022-09-06T20:39:05.976Z,57.80
2022-09-06T20:41:35.032Z,60.00
2022-09-06T20:44:02.400Z,57.60
2022-09-06T20:46:32.512Z,55.40
2022-09-06T20:49:04.426Z,54.20
2022-09-06T20:51:33.891Z,57.00
2022-09-06T20:54:02.496Z,57.20
2022-09-06T20:56:38.711Z,58.00
2022-09-06T20:59:11.061Z,57.00
2022-09-06T21:01:42.672Z,55.00
2022-09-06T21:04:11.063Z,58.00
2022-09-06T21:06:39.779Z,57.00
2022-09-06T21:09:13.506Z,58.00
2022-09-06T21:11:41.333Z,55.40
2022-09-06T21:14:09.559Z,57.40
2022-09-06T21:16:38.103Z,57.80
2022-09-06T21:19:09.094Z,57.00
2022-09-06T21:21:37.133Z,58.00
2022-09-06T21:24:06.132Z,57.40
2022-09-06T21:26:34.022Z,57.20
2022-09-06T21:29:01.037Z,57.40
2022-09-06T21:31:30.419Z,58.40
2022-09-06T21:33:59.632Z,54.60
2022-09-06T21:36:31.965Z,57.20
2022-09-06T21:39:05.527Z,55.00
2022-09-06T21:41:35.275Z,57.00
2022-09-06T21:44:03.839Z,54.40
2022-09-06T21:46:33.691Z,56.60
2022-09-06T21:49:04.564Z,54.20
2022-09-06T21:51:32.830Z,55.00
2022-09-06T21:54:03.709Z,54.20
2022-09-06T21:56:32.092Z,54.20
2022-09-06T21:58:59.422Z,54.00
2022-09-06T22:01:32.778Z,56.20
2022-09-06T22:04:00.854Z,57.00
2022-09-06T22:06:29.789Z,54.20
2022-09-06T22:08:59.161Z,54.00
2022-09-06T22:11:29.333Z,57.00
2022-09-06T22:14:02.012Z,57.00
2022-09-06T22:16:30.421Z,57.00
2022-09-06T22:18:57.605Z,55.00
2022-09-06T22:21:25.100Z,54.00
2022-09-06T22:24:01.517Z,56.60
2022-09-06T22:26:30.929Z,57.00
2022-09-06T22:29:00.254Z,55.40
2022-09-06T22:31:29.677Z,56.40
2022-09-06T22:33:58.855Z,55.80
2022-09-06T22:36:27.374Z,54.00
2022-09-06T22:38:57.827Z,57.60
2022-09-06T22:41:27.789Z,57.00
2022-09-06T22:43:55.380Z,54.00
2022-09-06T22:46:23.372Z,54.00
2022-09-06T22:48:50.732Z,57.00
2022-09-06T22:51:18.100Z,55.80
2022-09-06T22:53:45.300Z,55.40
2022-09-06T22:56:12.412Z,54.00
2022-09-06T22:58:39.584Z,55.60
2022-09-06T23:01:12.859Z,55.00
2022-09-06T23:03:43.595Z,55.80
2022-09-06T23:06:11.570Z,55.00
2022-09-06T23:08:40.293Z,54.60
2022-09-06T23:11:10.531Z,54.20
2022-09-06T23:13:38.482Z,57.00
2022-09-06T23:16:07.587Z,54.20
2022-09-06T23:18:35.066Z,64.80
2022-09-06T23:21:10.690Z,54.80
2022-09-06T23:23:38.600Z,57.00
2022-09-06T23:26:13.813Z,57.00
2022-09-06T23:28:44.655Z,54.00
2022-09-06T23:31:15.402Z,55.20
2022-09-06T23:33:42.969Z,54.60
2022-09-06T23:36:15.061Z,65.60
2022-09-06T23:38:46.415Z,54.20
2022-09-06T23:41:14.175Z,54.00
2022-09-06T23:43:43.511Z,54.00
2022-09-06T23:46:13.494Z,57.00
2022-09-06T23:48:42.135Z,57.00
2022-09-06T23:51:09.898Z,54.40
2022-09-06T23:53:40.452Z,54.00
2022-09-06T23:56:08.414Z,54.20
2022-09-06T23:58:36.264Z,55.40
